Time;durP1;ratioP1;P1;durP2;ratioP2;P2;SDS_P1;SDS_P2;PMS_P1;PMS_P2;Temp;Humidity;BMP_temperature;BMP_pressure;BME280_temperature;BME280_humidity;BME280_pressure;Samples;Min_cycle;Max_cycle;Signal;HPM_P1;HPM_P2
2022/04/26 03:36:58;;;;;;;55.40;31.23;;;;;;;;;;5034027;28;20187;-76
2022/04/26 03:39:24;;;;;;;51.00;31.13;;;;;;;;;;5025274;28;20225;-77
2022/04/26 03:41:50;;;;;;;49.75;31.05;;;;;;;;;;5013451;28;20689;-77
2022/04/26 03:44:16;;;;;;;56.77;30.90;;;;;;;;;;4996354;28;20189;-78
2022/04/26 03:46:42;;;;;;;53.30;32.03;;;;;;;;;;5013580;28;20533;-78
2022/04/26 03:49:08;;;;;;;45.90;28.93;;;;;;;;;;5019236;28;20424;-76
2022/04/26 03:51:34;;;;;;;49.70;30.42;;;;;;;;;;5033084;28;20852;-75
2022/04/26 03:54:00;;;;;;;55.13;32.30;;;;;;;;;;5033302;28;20180;-78
2022/04/26 03:56:26;;;;;;;49.90;29.13;;;;;;;;;;5033115;28;20187;-78
2022/04/26 03:58:52;;;;;;;55.95;32.20;;;;;;;;;;5030102;28;21092;-76
2022/04/26 04:01:18;;;;;;;64.03;32.57;;;;;;;;;;5013094;28;20217;-77
2022/04/26 04:03:44;;;;;;;55.30;31.88;;;;;;;;;;5013210;28;20403;-76
2022/04/26 04:06:10;;;;;;;52.07;29.70;;;;;;;;;;5013410;28;20543;-78
2022/04/26 04:08:35;;;;;;;47.80;27.17;;;;;;;;;;5013848;28;20792;-75
2022/04/26 04:11:01;;;;;;;49.80;27.10;;;;;;;;;;5032882;28;20751;-75
2022/04/26 04:13:28;;;;;;;53.22;27.00;;;;;;;;;;5033233;28;20461;-75
2022/04/26 04:15:54;;;;;;;47.17;27.40;;;;;;;;;;5033296;28;20169;-78
2022/04/26 04:21:05;;;;;;;52.67;30.45;;;;;;;;;;5013124;28;20192;-78
2022/04/26 04:23:31;;;;;;;48.83;29.67;;;;;;;;;;5013476;28;20177;-78
2022/04/26 04:25:56;;;;;;;55.33;30.17;;;;;;;;;;5013511;28;20409;-74
2022/04/26 04:28:22;;;;;;;44.87;27.77;;;;;;;;;;5013190;28;20467;-76
2022/04/26 04:30:48;;;;;;;46.07;26.40;;;;;;;;;;5030962;28;20425;-76
2022/04/26 04:33:14;;;;;;;50.13;27.47;;;;;;;;;;5033594;28;20526;-77
2022/04/26 04:35:40;;;;;;;47.73;26.83;;;;;;;;;;5037147;28;20883;-76
2022/04/26 04:38:06;;;;;;;51.60;27.70;;;;;;;;;;5034938;28;20412;-79
2022/04/26 04:40:32;;;;;;;47.47;28.90;;;;;;;;;;5016622;28;20800;-75
2022/04/26 04:42:58;;;;;;;43.47;27.17;;;;;;;;;;5016837;28;20477;-76
2022/04/26 04:45:24;;;;;;;42.67;27.80;;;;;;;;;;5016958;28;20645;-76
2022/04/26 04:47:50;;;;;;;41.27;27.03;;;;;;;;;;5016993;28;20769;-76
2022/04/26 04:50:16;;;;;;;42.90;25.77;;;;;;;;;;5035011;28;20425;-75
2022/04/26 04:52:42;;;;;;;43.78;28.10;;;;;;;;;;5036335;28;20806;-77
2022/04/26 04:55:08;;;;;;;48.90;31.88;;;;;;;;;;5036529;28;20185;-75
2022/04/26 04:57:34;;;;;;;47.45;31.02;;;;;;;;;;5036474;28;20199;-74
2022/04/26 05:00:00;;;;;;;53.67;32.00;;;;;;;;;;5003171;28;20676;-77
2022/04/26 05:02:26;;;;;;;53.03;33.65;;;;;;;;;;5016235;28;20430;-75
2022/04/26 05:04:52;;;;;;;46.70;32.07;;;;;;;;;;5016283;28;20188;-75
2022/04/26 05:07:18;;;;;;;66.17;35.50;;;;;;;;;;5016557;28;20445;-75
2022/04/26 05:09:44;;;;;;;61.17;35.47;;;;;;;;;;5029366;28;20910;-75
2022/04/26 05:12:10;;;;;;;57.27;36.57;;;;;;;;;;5035704;28;20460;-78
2022/04/26 05:14:36;;;;;;;69.47;42.33;;;;;;;;;;5018629;28;20460;-76
2022/04/26 05:17:02;;;;;;;67.70;42.10;;;;;;;;;;5036062;28;20658;-75
2022/04/26 05:19:28;;;;;;;73.10;46.45;;;;;;;;;;5025486;28;20471;-75
2022/04/26 05:21:54;;;;;;;83.10;47.73;;;;;;;;;;5015819;28;20210;-76
2022/04/26 05:27:05;;;;;;;92.88;53.63;;;;;;;;;;5016442;28;20428;-73
2022/04/26 05:29:31;;;;;;;87.03;50.65;;;;;;;;;;5026134;28;20223;-77
2022/04/26 05:31:57;;;;;;;81.05;49.22;;;;;;;;;;5035549;28;20215;-76
2022/04/26 05:34:23;;;;;;;87.80;52.20;;;;;;;;;;5035919;28;20180;-75
2022/04/26 05:36:49;;;;;;;84.00;47.47;;;;;;;;;;5035844;28;20427;-75
2022/04/26 05:39:15;;;;;;;82.87;48.63;;;;;;;;;;5027810;28;20219;-76
2022/04/26 05:41:41;;;;;;;92.60;51.30;;;;;;;;;;5015560;28;20441;-75
2022/04/26 05:44:07;;;;;;;88.93;52.15;;;;;;;;;;5015206;28;20932;-77
2022/04/26 05:46:33;;;;;;;106.03;51.67;;;;;;;;;;5015737;28;20214;-76
2022/04/26 05:48:59;;;;;;;93.47;49.43;;;;;;;;;;5020985;28;20455;-74
2022/04/26 05:51:25;;;;;;;97.50;51.93;;;;;;;;;;5035054;28;20517;-75
2022/04/26 05:53:51;;;;;;;120.50;57.17;;;;;;;;;;5035324;28;20415;-75
2022/04/26 05:56:17;;;;;;;112.33;58.50;;;;;;;;;;5035397;28;20427;-75
2022/04/26 05:58:43;;;;;;;121.73;62.10;;;;;;;;;;5032034;28;20521;-76
2022/04/26 06:01:09;;;;;;;130.73;62.95;;;;;;;;;;5021574;28;20485;-76
2022/04/26 06:03:35;;;;;;;121.90;62.20;;;;;;;;;;5035112;28;20181;-76
2022/04/26 06:06:01;;;;;;;134.68;62.63;;;;;;;;;;5035139;28;20416;-77
2022/04/26 06:08:27;;;;;;;105.60;55.40;;;;;;;;;;5034467;28;20188;-77
2022/04/26 06:10:53;;;;;;;121.05;58.47;;;;;;;;;;5014986;28;20420;-75
2022/04/26 06:13:19;;;;;;;105.40;57.53;;;;;;;;;;5015025;28;20216;-75
2022/04/26 06:15:45;;;;;;;96.10;55.03;;;;;;;;;;5015105;28;20420;-75
2022/04/26 06:18:11;;;;;;;90.85;54.83;;;;;;;;;;5016621;28;20579;-75
2022/04/26 06:20:37;;;;;;;92.47;53.90;;;;;;;;;;5014683;28;20221;-75
2022/04/26 06:23:03;;;;;;;75.93;52.40;;;;;;;;;;5015282;28;20815;-76
2022/04/26 06:25:29;;;;;;;77.13;46.45;;;;;;;;;;5014871;28;20406;-76
2022/04/26 06:27:55;;;;;;;69.78;44.38;;;;;;;;;;5015456;28;20225;-74
2022/04/26 06:30:21;;;;;;;62.90;41.73;;;;;;;;;;5014725;28;20183;-78
2022/04/26 06:32:47;;;;;;;72.93;41.00;;;;;;;;;;5014951;28;20534;-75
2022/04/26 06:35:13;;;;;;;65.03;39.60;;;;;;;;;;5014902;28;20908;-76
2022/04/26 06:37:39;;;;;;;72.10;43.17;;;;;;;;;;5017874;28;20428;-76
2022/04/26 06:40:05;;;;;;;72.68;42.05;;;;;;;;;;5016246;28;20216;-77
2022/04/26 06:42:31;;;;;;;70.63;41.72;;;;;;;;;;5014502;28;20327;-76
2022/04/26 06:44:57;;;;;;;66.27;39.10;;;;;;;;;;5015019;28;20677;-76
2022/04/26 06:47:23;;;;;;;70.53;37.93;;;;;;;;;;5014558;28;20416;-76
2022/04/26 06:49:49;;;;;;;58.57;39.50;;;;;;;;;;5028180;28;20550;-77
2022/04/26 06:52:15;;;;;;;74.20;40.53;;;;;;;;;;5033861;28;20430;-76
2022/04/26 06:54:41;;;;;;;63.20;38.37;;;;;;;;;;5016834;28;20478;-75
2022/04/26 06:57:07;;;;;;;67.00;39.57;;;;;;;;;;5033502;28;20440;-77
2022/04/26 06:59:34;;;;;;;79.82;43.15;;;;;;;;;;5022253;28;20546;-74
2022/04/26 07:01:59;;;;;;;70.57;43.45;;;;;;;;;;5013848;28;20229;-76
2022/04/26 07:04:26;;;;;;;76.83;43.20;;;;;;;;;;5014271;28;20228;-74
2022/04/26 07:06:52;;;;;;;75.18;41.13;;;;;;;;;;5015440;28;20430;-74
2022/04/26 07:09:19;;;;;;;79.83;38.40;;;;;;;;;;5014411;28;20721;-75
2022/04/26 07:11:46;;;;;;;66.05;38.58;;;;;;;;;;5013617;28;20501;-76
2022/04/26 07:14:12;;;;;;;76.55;40.40;;;;;;;;;;5014207;28;20182;-74
2022/04/26 07:16:38;;;;;;;83.25;43.75;;;;;;;;;;5021827;28;20559;-75
2022/04/26 07:19:05;;;;;;;85.43;44.42;;;;;;;;;;5019263;28;20212;-76
2022/04/26 07:21:31;;;;;;;85.40;49.58;;;;;;;;;;4996342;28;20737;-74
2022/04/26 07:23:57;;;;;;;95.45;50.45;;;;;;;;;;4996365;28;20638;-76
2022/04/26 07:26:22;;;;;;;101.67;51.13;;;;;;;;;;5014105;28;20175;-75
2022/04/26 07:28:48;;;;;;;113.40;56.20;;;;;;;;;;5013935;28;20412;-75
2022/04/26 07:31:14;;;;;;;109.37;56.97;;;;;;;;;;5013678;28;20403;-76
2022/04/26 07:36:25;;;;;;;111.53;57.17;;;;;;;;;;5014250;28;20398;-76
2022/04/26 07:38:51;;;;;;;110.67;56.20;;;;;;;;;;5013817;28;20190;-75
2022/04/26 07:41:17;;;;;;;120.33;58.10;;;;;;;;;;5013468;28;20430;-74
2022/04/26 07:43:44;;;;;;;115.95;58.67;;;;;;;;;;5013745;28;20405;-75
2022/04/26 07:46:12;;;;;;;115.68;55.65;;;;;;;;;;5013571;28;20177;-77
2022/04/26 07:48:41;;;;;;;102.05;49.67;;;;;;;;;;5013738;28;20552;-74
2022/04/26 07:51:08;;;;;;;90.95;47.80;;;;;;;;;;5013419;28;20167;-76
2022/04/26 07:53:34;;;;;;;82.32;45.97;;;;;;;;;;5025312;28;20649;-76
2022/04/26 07:56:01;;;;;;;97.25;48.70;;;;;;;;;;5033358;28;20175;-75
2022/04/26 07:58:27;;;;;;;90.35;48.03;;;;;;;;;;5033375;28;20535;-76
2022/04/26 08:00:53;;;;;;;78.97;46.60;;;;;;;;;;5033106;28;20215;-75
2022/04/26 08:03:20;;;;;;;76.50;43.70;;;;;;;;;;5033164;28;20194;-77
2022/04/26 08:05:46;;;;;;;83.00;46.63;;;;;;;;;;5033192;28;20409;-76
2022/04/26 08:08:12;;;;;;;82.90;47.38;;;;;;;;;;5032765;28;20183;-77
2022/04/26 08:10:38;;;;;;;80.63;49.22;;;;;;;;;;5032797;28;20189;-77
2022/04/26 08:13:04;;;;;;;82.30;50.23;;;;;;;;;;5032983;28;20635;-74
2022/04/26 08:15:30;;;;;;;92.57;54.55;;;;;;;;;;5033156;28;20419;-74
2022/04/26 08:17:56;;;;;;;95.88;53.58;;;;;;;;;;5033023;28;20181;-75
2022/04/26 08:20:24;;;;;;;91.00;54.55;;;;;;;;;;5032926;28;20202;-78
2022/04/26 08:22:50;;;;;;;94.00;56.28;;;;;;;;;;5033309;28;20274;-76
2022/04/26 08:28:01;;;;;;;100.50;54.45;;;;;;;;;;5033476;28;20402;-76
2022/04/26 08:30:27;;;;;;;97.22;56.75;;;;;;;;;;5032599;28;20716;-75
2022/04/26 08:32:53;;;;;;;102.18;56.60;;;;;;;;;;5033050;28;20205;-73
2022/04/26 08:35:21;;;;;;;109.65;55.50;;;;;;;;;;5032900;28;20177;-72
2022/04/26 08:37:47;;;;;;;84.03;53.50;;;;;;;;;;5032866;28;20168;-73
2022/04/26 08:40:14;;;;;;;94.97;55.60;;;;;;;;;;5032409;28;20202;-74
2022/04/26 08:42:41;;;;;;;92.18;56.38;;;;;;;;;;5032644;28;20221;-75
2022/04/26 08:45:08;;;;;;;83.57;52.03;;;;;;;;;;5033022;28;20217;-74
2022/04/26 08:53:05;;;;;;;88.18;54.78;;;;;;;;;;5032933;28;20213;-74
2022/04/26 08:55:31;;;;;;;97.90;56.03;;;;;;;;;;5032784;28;20178;-73
2022/04/26 08:57:58;;;;;;;96.43;57.35;;;;;;;;;;5032916;28;20173;-74
2022/04/26 09:00:25;;;;;;;96.43;56.30;;;;;;;;;;5032181;28;20295;-74
2022/04/26 09:03:01;;;;;;;87.50;55.58;;;;;;;;;;5032478;28;20193;-74
2022/04/26 09:05:27;;;;;;;94.60;57.78;;;;;;;;;;5032587;28;20191;-74
2022/04/26 09:07:53;;;;;;;91.40;57.22;;;;;;;;;;5032609;28;20655;-75
2022/04/26 09:10:20;;;;;;;90.07;56.25;;;;;;;;;;5032264;28;20725;-73
2022/04/26 09:13:06;;;;;;;89.68;54.80;;;;;;;;;;5032034;28;20259;-74
2022/04/26 09:15:36;;;;;;;82.97;52.85;;;;;;;;;;5032357;28;20189;-74
2022/04/26 09:18:22;;;;;;;90.22;54.35;;;;;;;;;;5032608;28;20220;-75
2022/04/26 09:20:52;;;;;;;88.15;53.97;;;;;;;;;;5034997;28;20757;-74
2022/04/26 09:23:28;;;;;;;86.32;54.50;;;;;;;;;;5018432;28;20280;-74
2022/04/26 09:26:06;;;;;;;92.30;54.60;;;;;;;;;;5018609;28;20267;-72
2022/04/26 09:28:32;;;;;;;98.30;59.25;;;;;;;;;;5035907;28;20563;-74
2022/04/26 09:30:58;;;;;;;108.53;60.63;;;;;;;;;;5017687;28;20190;-75
2022/04/26 09:33:36;;;;;;;108.75;61.13;;;;;;;;;;5018408;28;20409;-74
2022/04/26 09:36:04;;;;;;;104.90;59.70;;;;;;;;;;5036056;28;20225;-76
2022/04/26 09:38:33;;;;;;;107.25;62.53;;;;;;;;;;5035989;28;20204;-75
2022/04/26 09:41:00;;;;;;;102.60;59.35;;;;;;;;;;5035134;28;20201;-73
2022/04/26 09:43:26;;;;;;;107.93;59.70;;;;;;;;;;5035801;28;20188;-73
2022/04/26 09:45:59;;;;;;;112.20;62.88;;;;;;;;;;5035545;28;20178;-75
2022/04/26 09:48:35;;;;;;;114.68;64.93;;;;;;;;;;5035544;28;20171;-75
2022/04/26 09:51:02;;;;;;;111.97;65.95;;;;;;;;;;5017307;28;20212;-76
2022/04/26 09:53:32;;;;;;;110.60;60.35;;;;;;;;;;5035439;28;20552;-74
2022/04/26 09:55:59;;;;;;;96.45;60.97;;;;;;;;;;5035416;28;20179;-76
2022/04/26 09:58:27;;;;;;;103.05;60.78;;;;;;;;;;5035325;28;20174;-75
2022/04/26 10:00:54;;;;;;;101.72;62.42;;;;;;;;;;5034976;28;20200;-76
2022/04/26 10:03:40;;;;;;;103.00;62.00;;;;;;;;;;5035080;28;20192;-74
2022/04/26 10:06:07;;;;;;;95.10;60.50;;;;;;;;;;5035311;28;20174;-76
2022/04/26 10:08:38;;;;;;;88.68;57.65;;;;;;;;;;5035143;28;20246;-76
2022/04/26 10:11:04;;;;;;;85.88;57.92;;;;;;;;;;5034572;28;20271;-75
2022/04/26 10:13:38;;;;;;;91.37;59.73;;;;;;;;;;5026028;28;20627;-77
2022/04/26 10:16:09;;;;;;;87.57;55.55;;;;;;;;;;5023553;28;20455;-75
2022/04/26 10:18:38;;;;;;;91.43;59.35;;;;;;;;;;5025685;28;20179;-77
2022/04/26 10:21:05;;;;;;;91.13;57.20;;;;;;;;;;5019775;28;20612;-76
2022/04/26 10:23:50;;;;;;;80.17;58.20;;;;;;;;;;5014988;28;20726;-76
2022/04/26 10:28:54;;;;;;;79.25;55.97;;;;;;;;;;5015056;28;20553;-76
2022/04/26 10:31:34;;;;;;;80.07;56.37;;;;;;;;;;5014592;28;20204;-72
2022/04/26 10:34:00;;;;;;;80.60;55.27;;;;;;;;;;5015033;28;20406;-75
2022/04/26 10:36:33;;;;;;;81.60;56.00;;;;;;;;;;5014951;28;20402;-77
2022/04/26 10:39:08;;;;;;;76.53;55.17;;;;;;;;;;5017896;28;20759;-75
2022/04/26 10:41:35;;;;;;;78.77;54.90;;;;;;;;;;5022746;28;20773;-75
2022/04/26 10:44:13;;;;;;;77.73;55.60;;;;;;;;;;5007346;28;20910;-76
2022/04/26 10:47:00;;;;;;;68.83;52.90;;;;;;;;;;5024932;28;20414;-76
2022/04/26 10:49:35;;;;;;;71.07;55.63;;;;;;;;;;5006007;28;20516;-76
2022/04/26 10:52:13;;;;;;;76.60;53.60;;;;;;;;;;5024680;28;20952;-76
2022/04/26 10:54:48;;;;;;;70.23;56.13;;;;;;;;;;5024736;28;20829;-74
2022/04/26 10:57:15;;;;;;;67.60;52.83;;;;;;;;;;5024108;28;20743;-76
2022/04/26 10:59:42;;;;;;;59.47;47.93;;;;;;;;;;5022791;28;20458;-74
2022/04/26 11:02:12;;;;;;;60.77;49.90;;;;;;;;;;5022341;28;20512;-76
2022/04/26 11:04:38;;;;;;;59.47;50.07;;;;;;;;;;5023095;28;20402;-76
2022/04/26 11:07:11;;;;;;;62.87;46.70;;;;;;;;;;5023658;28;20444;-75
2022/04/26 11:09:37;;;;;;;55.03;46.73;;;;;;;;;;5024433;28;20421;-76
2022/04/26 11:12:03;;;;;;;55.90;46.00;;;;;;;;;;5022955;28;20511;-75
2022/04/26 11:14:29;;;;;;;58.57;46.23;;;;;;;;;;5022741;28;20432;-76
2022/04/26 11:16:59;;;;;;;55.37;46.30;;;;;;;;;;5024403;28;20775;-75
2022/04/26 11:19:36;;;;;;;51.63;44.57;;;;;;;;;;5005984;28;20458;-75
2022/04/26 11:22:09;;;;;;;53.03;45.50;;;;;;;;;;5022744;28;20426;-75
2022/04/26 11:30:06;;;;;;;53.60;47.37;;;;;;;;;;5023641;28;20490;-74
2022/04/26 11:32:34;;;;;;;54.57;47.93;;;;;;;;;;5021748;28;20437;-76
2022/04/26 11:35:00;;;;;;;50.20;42.63;;;;;;;;;;5025141;28;20420;-76
2022/04/26 11:37:27;;;;;;;50.17;42.60;;;;;;;;;;5033592;28;20780;-76
2022/04/26 11:39:53;;;;;;;46.77;40.83;;;;;;;;;;5033505;28;20559;-78
2022/04/26 11:42:19;;;;;;;47.40;37.47;;;;;;;;;;5032789;28;20442;-75
2022/04/26 11:45:02;;;;;;;51.77;45.50;;;;;;;;;;5033618;28;20444;-76
2022/04/26 11:47:48;;;;;;;56.63;46.70;;;;;;;;;;5033656;28;20454;-76
2022/04/26 11:50:14;;;;;;;49.60;40.93;;;;;;;;;;5033140;28;20467;-75
2022/04/26 11:52:43;;;;;;;53.00;43.70;;;;;;;;;;5033053;28;20440;-75
2022/04/26 11:55:18;;;;;;;49.87;39.17;;;;;;;;;;5033328;28;20421;-76
2022/04/26 11:57:44;;;;;;;44.90;38.80;;;;;;;;;;5033172;28;20475;-75
2022/04/26 12:00:10;;;;;;;47.60;39.47;;;;;;;;;;5032780;28;20443;-76
2022/04/26 12:02:36;;;;;;;49.63;39.67;;;;;;;;;;5033074;28;20437;-76
2022/04/26 12:05:03;;;;;;;46.63;37.77;;;;;;;;;;5033143;28;20448;-76
2022/04/26 12:07:31;;;;;;;41.93;35.93;;;;;;;;;;5033162;28;20406;-75
2022/04/26 12:09:57;;;;;;;47.10;36.77;;;;;;;;;;5033007;28;20387;-75
2022/04/26 12:12:23;;;;;;;42.03;36.93;;;;;;;;;;5032523;28;20523;-76
2022/04/26 12:14:50;;;;;;;41.73;37.30;;;;;;;;;;5033078;28;20496;-74
2022/04/26 12:17:19;;;;;;;39.70;35.23;;;;;;;;;;5033055;28;20409;-74
2022/04/26 12:19:50;;;;;;;47.60;37.67;;;;;;;;;;5032997;28;20868;-75
2022/04/26 12:22:16;;;;;;;38.33;33.17;;;;;;;;;;5032540;28;20768;-75
2022/04/26 12:24:47;;;;;;;35.70;31.63;;;;;;;;;;5033031;28;20409;-74
2022/04/26 12:27:17;;;;;;;32.20;28.90;;;;;;;;;;5032935;28;20420;-75
2022/04/26 12:29:47;;;;;;;34.50;30.90;;;;;;;;;;5032903;28;20824;-75
2022/04/26 12:32:14;;;;;;;30.43;27.23;;;;;;;;;;5032464;28;20447;-75
2022/04/26 12:34:51;;;;;;;30.27;27.10;;;;;;;;;;5032854;28;20395;-74
2022/04/26 12:37:25;;;;;;;30.53;25.93;;;;;;;;;;5033095;28;20408;-74
2022/04/26 12:39:53;;;;;;;24.10;21.50;;;;;;;;;;5032935;28;20435;-72
2022/04/26 12:42:25;;;;;;;28.57;25.20;;;;;;;;;;5032424;28;20440;-73
2022/04/26 12:44:56;;;;;;;29.70;25.70;;;;;;;;;;5032855;28;20786;-75
2022/04/26 12:50:28;;;;;;;24.80;22.43;;;;;;;;;;5032993;28;20422;-75
2022/04/26 12:52:55;;;;;;;27.03;22.27;;;;;;;;;;5032704;28;20797;-74
2022/04/26 12:55:24;;;;;;;24.90;21.50;;;;;;;;;;5035433;28;20409;-74
2022/04/26 12:57:51;;;;;;;27.80;23.73;;;;;;;;;;5036715;28;20388;-75
2022/04/26 13:00:19;;;;;;;26.07;23.67;;;;;;;;;;5035880;28;20436;-75
2022/04/26 13:02:46;;;;;;;29.30;24.50;;;;;;;;;;5036333;28;20440;-75
2022/04/26 13:05:12;;;;;;;27.80;23.20;;;;;;;;;;5036297;28;20392;-76
2022/04/26 13:07:38;;;;;;;26.03;23.40;;;;;;;;;;5036256;28;20696;-75
2022/04/26 13:10:05;;;;;;;26.40;23.77;;;;;;;;;;5036204;28;20417;-74
2022/04/26 13:12:31;;;;;;;25.97;23.23;;;;;;;;;;5035603;28;20799;-73
2022/04/26 13:14:57;;;;;;;28.60;22.80;;;;;;;;;;5036154;28;20388;-73
2022/04/26 13:17:23;;;;;;;25.13;22.53;;;;;;;;;;5018573;28;20637;-73
2022/04/26 13:19:49;;;;;;;25.13;22.53;;;;;;;;;;5036015;28;20551;-74
2022/04/26 13:22:16;;;;;;;23.60;21.23;;;;;;;;;;5001634;28;20441;-74
2022/04/26 13:24:42;;;;;;;23.63;21.43;;;;;;;;;;5035914;28;20431;-75
2022/04/26 13:27:08;;;;;;;22.33;19.87;;;;;;;;;;5036043;28;20736;-73
2022/04/26 13:29:34;;;;;;;22.70;20.47;;;;;;;;;;5035831;28;20392;-74
2022/04/26 13:32:02;;;;;;;26.43;19.30;;;;;;;;;;5035369;28;20452;-74
2022/04/26 13:34:28;;;;;;;21.77;19.43;;;;;;;;;;5035951;28;20413;-75
2022/04/26 13:36:54;;;;;;;21.07;18.97;;;;;;;;;;5035690;28;20396;-74
2022/04/26 13:39:20;;;;;;;23.50;19.70;;;;;;;;;;5035618;28;20438;-74
2022/04/26 13:41:50;;;;;;;21.90;19.30;;;;;;;;;;5035066;28;20418;-75
2022/04/26 13:44:19;;;;;;;20.30;18.37;;;;;;;;;;5035943;28;20383;-73
2022/04/26 13:46:45;;;;;;;19.20;17.43;;;;;;;;;;5035492;28;20496;-73
2022/04/26 13:49:11;;;;;;;18.40;16.70;;;;;;;;;;5035803;28;20468;-73
2022/04/26 13:51:37;;;;;;;20.83;18.33;;;;;;;;;;5035211;28;20503;-74
2022/04/26 13:54:03;;;;;;;19.50;15.80;;;;;;;;;;5035578;28;20853;-74
2022/04/26 13:56:30;;;;;;;16.83;14.80;;;;;;;;;;5035466;28;20463;-75
2022/04/26 13:58:56;;;;;;;16.73;15.13;;;;;;;;;;5035254;28;20497;-74
2022/04/26 14:01:23;;;;;;;20.07;17.90;;;;;;;;;;5035023;28;20529;-73
2022/04/26 14:03:49;;;;;;;18.40;16.60;;;;;;;;;;5035350;28;20466;-76
2022/04/26 14:06:18;;;;;;;17.87;15.97;;;;;;;;;;5034814;28;20778;-75
2022/04/26 14:08:48;;;;;;;16.90;13.43;;;;;;;;;;5035243;28;20444;-74
2022/04/26 14:11:14;;;;;;;14.17;12.77;;;;;;;;;;5034930;28;20753;-74
2022/04/26 14:21:54;;;;;;;12.53;11.33;;;;;;;;;;5034994;28;20506;-77
2022/04/26 14:24:20;;;;;;;11.63;10.43;;;;;;;;;;5026137;28;20385;-74
2022/04/26 14:26:46;;;;;;;11.43;9.60;;;;;;;;;;5034876;28;20402;-75
2022/04/26 14:29:13;;;;;;;10.20;9.20;;;;;;;;;;5034519;28;20977;-74
2022/04/26 14:31:39;;;;;;;9.93;9.03;;;;;;;;;;5034451;28;20438;-74
2022/04/26 14:34:05;;;;;;;11.40;10.30;;;;;;;;;;5034849;28;20409;-75
2022/04/26 14:36:31;;;;;;;11.63;10.20;;;;;;;;;;5017102;28;20388;-74
2022/04/26 14:38:57;;;;;;;11.90;10.70;;;;;;;;;;5034715;28;20873;-73
2022/04/26 14:41:23;;;;;;;14.70;11.23;;;;;;;;;;5034078;28;20425;-74
2022/04/26 14:43:49;;;;;;;13.93;10.70;;;;;;;;;;5034706;28;20831;-74
2022/04/26 14:46:15;;;;;;;6.80;6.20;;;;;;;;;;5034438;28;20405;-77
2022/04/26 14:48:41;;;;;;;4.30;3.50;;;;;;;;;;5034569;28;20414;-74
2022/04/26 14:51:07;;;;;;;3.37;2.93;;;;;;;;;;5034043;28;20416;-74
2022/04/26 14:53:33;;;;;;;4.60;3.30;;;;;;;;;;5034245;28;20448;-75
2022/04/26 14:55:59;;;;;;;4.60;4.20;;;;;;;;;;5016691;28;20748;-76
2022/04/26 14:58:26;;;;;;;6.60;3.50;;;;;;;;;;5034346;28;20403;-73
2022/04/26 15:00:52;;;;;;;3.50;3.20;;;;;;;;;;5033941;28;20586;-73
2022/04/26 15:03:18;;;;;;;3.90;3.60;;;;;;;;;;5034104;28;20400;-74
2022/04/26 15:05:44;;;;;;;3.73;3.43;;;;;;;;;;5016452;28;20735;-74
2022/04/26 15:10:55;;;;;;;3.47;3.13;;;;;;;;;;5033804;28;20917;-74
2022/04/26 15:18:50;;;;;;;3.47;3.20;;;;;;;;;;5033832;28;20818;-75
2022/04/26 15:21:18;;;;;;;5.13;3.20;;;;;;;;;;5033377;28;20461;-73
2022/04/26 15:23:44;;;;;;;3.63;3.33;;;;;;;;;;5031518;28;20384;-73
2022/04/26 15:26:13;;;;;;;4.03;3.60;;;;;;;;;;5025119;28;20781;-76
2022/04/26 15:28:39;;;;;;;4.73;3.93;;;;;;;;;;5029143;28;20412;-74
2022/04/26 15:31:06;;;;;;;5.30;3.70;;;;;;;;;;5030944;28;20473;-73
2022/04/26 15:33:32;;;;;;;3.63;3.13;;;;;;;;;;5032220;28;20448;-74
2022/04/26 15:35:59;;;;;;;5.43;3.90;;;;;;;;;;5032200;28;20426;-76
2022/04/26 15:38:28;;;;;;;4.50;3.70;;;;;;;;;;5031096;28;20425;-74
2022/04/26 15:40:54;;;;;;;4.67;4.23;;;;;;;;;;5031740;28;20457;-74
2022/04/26 15:43:20;;;;;;;4.87;3.80;;;;;;;;;;5031619;28;20440;-74
2022/04/26 15:45:46;;;;;;;5.90;4.30;;;;;;;;;;5031127;28;20411;-74
2022/04/26 15:48:13;;;;;;;4.57;4.17;;;;;;;;;;5031601;28;20425;-75
2022/04/26 15:50:41;;;;;;;5.80;5.03;;;;;;;;;;5031258;28;20479;-74
2022/04/26 15:53:07;;;;;;;5.70;5.20;;;;;;;;;;5030764;28;20527;-73
2022/04/26 15:55:33;;;;;;;6.33;5.70;;;;;;;;;;5031775;28;20905;-74
2022/04/26 15:58:00;;;;;;;5.80;5.30;;;;;;;;;;5031544;28;20795;-74
2022/04/26 16:00:26;;;;;;;6.30;5.70;;;;;;;;;;5013232;28;20588;-75
2022/04/26 16:02:54;;;;;;;7.10;5.50;;;;;;;;;;5031567;28;20447;-72
2022/04/26 16:05:20;;;;;;;6.10;5.50;;;;;;;;;;5031976;28;20423;-74
2022/04/26 16:07:46;;;;;;;9.03;6.53;;;;;;;;;;5030514;28;20928;-75
2022/04/26 16:21:10;;;;;;;7.85;7.15;;;;;;;;;;5031110;28;20617;-75
2022/04/26 16:23:37;;;;;;;9.63;8.73;;;;;;;;;;5031043;28;20293;-76
2022/04/26 16:26:05;;;;;;;10.73;9.60;;;;;;;;;;5028092;28;20430;-76
2022/04/26 16:28:32;;;;;;;12.53;11.30;;;;;;;;;;5018963;28;20528;-77
2022/04/26 16:30:58;;;;;;;11.27;10.15;;;;;;;;;;5014516;28;20774;-76
2022/04/26 16:33:24;;;;;;;11.40;10.03;;;;;;;;;;4998495;28;20656;-74
2022/04/26 16:35:50;;;;;;;11.45;10.40;;;;;;;;;;5015573;28;20435;-76
2022/04/26 16:38:17;;;;;;;11.83;10.83;;;;;;;;;;5014803;28;20188;-73
2022/04/26 16:40:44;;;;;;;15.43;12.18;;;;;;;;;;4997486;28;20468;-75
2022/04/26 16:43:11;;;;;;;13.05;11.73;;;;;;;;;;5015775;28;20187;-75
2022/04/26 16:45:37;;;;;;;13.00;11.80;;;;;;;;;;4997156;28;20187;-75
2022/04/26 16:48:03;;;;;;;14.20;12.88;;;;;;;;;;5015520;28;20217;-74
2022/04/26 16:50:29;;;;;;;13.48;12.15;;;;;;;;;;4997362;28;21126;-73
2022/04/26 16:52:57;;;;;;;14.73;12.80;;;;;;;;;;5014373;28;20198;-72
2022/04/26 16:55:23;;;;;;;13.45;12.10;;;;;;;;;;5015475;28;20209;-73
2022/04/26 16:57:49;;;;;;;14.75;13.20;;;;;;;;;;5016735;28;20188;-74
2022/04/26 17:00:15;;;;;;;16.08;14.60;;;;;;;;;;5016238;28;20210;-74
2022/04/26 17:02:42;;;;;;;15.90;14.30;;;;;;;;;;5016726;28;20577;-73
2022/04/26 17:05:08;;;;;;;16.65;14.10;;;;;;;;;;5016897;28;20182;-74
2022/04/26 17:07:34;;;;;;;16.10;14.50;;;;;;;;;;5016776;28;20170;-75
2022/04/26 17:10:00;;;;;;;15.70;14.10;;;;;;;;;;5016668;28;20652;-74
2022/04/26 17:12:30;;;;;;;16.55;14.98;;;;;;;;;;5015963;28;20456;-73
2022/04/26 17:14:56;;;;;;;17.58;15.88;;;;;;;;;;5016711;28;20170;-75
2022/04/26 17:17:22;;;;;;;17.25;15.45;;;;;;;;;;5016416;28;20182;-75
2022/04/26 17:19:51;;;;;;;17.80;16.05;;;;;;;;;;5016333;28;20201;-72
2022/04/26 17:22:17;;;;;;;18.83;16.67;;;;;;;;;;4998253;28;20202;-72
2022/04/26 17:27:28;;;;;;;20.23;17.08;;;;;;;;;;5016761;28;20403;-74
2022/04/26 17:29:53;;;;;;;19.73;17.73;;;;;;;;;;5016266;28;20206;-74
2022/04/26 17:32:20;;;;;;;27.10;24.47;;;;;;;;;;5015898;28;20564;-77
2022/04/26 17:34:46;;;;;;;21.60;19.27;;;;;;;;;;5016255;28;20444;-72
2022/04/26 17:37:13;;;;;;;19.85;17.88;;;;;;;;;;5016168;28;20180;-75
2022/04/26 17:39:39;;;;;;;21.23;19.02;;;;;;;;;;5015635;28;20255;-73
2022/04/26 17:42:07;;;;;;;20.15;17.70;;;;;;;;;;4998085;28;20208;-73
2022/04/26 17:44:34;;;;;;;21.35;18.35;;;;;;;;;;5015904;28;20307;-72
2022/04/26 17:47:00;;;;;;;25.05;22.40;;;;;;;;;;5015970;28;20268;-73
2022/04/26 17:49:27;;;;;;;24.48;22.10;;;;;;;;;;5015885;28;20548;-73
2022/04/26 17:51:53;;;;;;;42.53;34.35;;;;;;;;;;5015706;28;20194;-73
2022/04/26 17:57:04;;;;;;;29.13;26.17;;;;;;;;;;5016389;28;20236;-73
2022/04/26 17:59:30;;;;;;;24.63;22.20;;;;;;;;;;5015757;28;20248;-76
2022/04/26 18:01:56;;;;;;;32.55;27.65;;;;;;;;;;5015147;28;20660;-74
2022/04/26 18:04:22;;;;;;;28.43;22.50;;;;;;;;;;5015232;28;20181;-74
2022/04/26 18:06:48;;;;;;;22.95;20.55;;;;;;;;;;5015281;28;20511;-74
2022/04/26 18:09:14;;;;;;;23.83;21.33;;;;;;;;;;4998016;28;20178;-73
2022/04/26 18:11:40;;;;;;;26.17;23.30;;;;;;;;;;5014869;28;20734;-75
2022/04/26 18:14:07;;;;;;;24.20;21.73;;;;;;;;;;5015124;28;20193;-73
2022/04/26 18:16:33;;;;;;;26.25;21.48;;;;;;;;;;5014994;28;20185;-76
2022/04/26 18:19:03;;;;;;;25.33;22.80;;;;;;;;;;5014938;28;20174;-74
2022/04/26 18:21:30;;;;;;;25.88;23.20;;;;;;;;;;5014736;28;20222;-76
2022/04/26 18:23:56;;;;;;;28.95;26.17;;;;;;;;;;5015110;28;20180;-74
2022/04/26 18:26:23;;;;;;;27.15;24.58;;;;;;;;;;5015010;28;20199;-76
2022/04/26 18:28:51;;;;;;;30.05;25.05;;;;;;;;;;5014745;28;20177;-76
2022/04/26 18:31:19;;;;;;;46.13;41.13;;;;;;;;;;5014466;28;20617;-74
2022/04/26 18:33:45;;;;;;;31.63;26.50;;;;;;;;;;4997242;28;20255;-75
2022/04/26 18:36:13;;;;;;;23.63;21.35;;;;;;;;;;5014844;28;20646;-75
2022/04/26 18:38:40;;;;;;;25.50;22.88;;;;;;;;;;5014664;28;20183;-75
2022/04/26 18:41:08;;;;;;;24.42;21.98;;;;;;;;;;5014202;28;20205;-74
2022/04/26 18:43:34;;;;;;;26.67;23.67;;;;;;;;;;5014758;28;20184;-74
2022/04/26 18:46:00;;;;;;;28.42;24.50;;;;;;;;;;5014517;28;20187;-73
2022/04/26 18:48:26;;;;;;;27.05;24.25;;;;;;;;;;5021122;28;20185;-74
2022/04/26 18:50:53;;;;;;;27.13;23.23;;;;;;;;;;5014022;28;20186;-74
2022/04/26 18:53:19;;;;;;;27.88;24.30;;;;;;;;;;4998836;28;20429;-74
2022/04/26 18:55:45;;;;;;;28.00;25.00;;;;;;;;;;5032621;28;20326;-74